Time;durP1;ratioP1;P1;durP2;ratioP2;P2;SDS_P1;SDS_P2;PMS_P1;PMS_P2;Temp;Humidity;BMP_temperature;BMP_pressure;BME280_temperature;BME280_humidity;BME280_pressure;Samples;Min_cycle;Max_cycle;Signal;HPM_P1;HPM_P2
2022/04/10 00:01:35;;;;;;;7.57;1.47;;;3.70;99.90;;;;;;5062687;28;20202;-52
2022/04/10 00:04:01;;;;;;;6.37;2.10;;;3.80;99.90;;;;;;5058570;28;20218;-55
2022/04/10 00:06:28;;;;;;;9.37;2.10;;;3.80;99.90;;;;;;5052973;28;20198;-53
2022/04/10 00:08:55;;;;;;;4.43;1.50;;;3.80;99.90;;;;;;5052794;28;20226;-54
2022/04/10 00:11:22;;;;;;;6.83;2.10;;;3.80;99.90;;;;;;5062377;28;20210;-56
2022/04/10 00:13:49;;;;;;;5.03;1.80;;;3.90;99.90;;;;;;5056690;28;20203;-53
2022/04/10 00:16:17;;;;;;;7.80;1.97;;;3.80;99.90;;;;;;5056894;28;20214;-53
2022/04/10 00:18:43;;;;;;;11.17;2.17;;;3.90;99.90;;;;;;5061063;28;20687;-56
2022/04/10 00:21:11;;;;;;;12.53;2.27;;;3.80;99.90;;;;;;5048937;28;20441;-53
2022/04/10 00:23:38;;;;;;;7.20;2.00;;;3.80;99.90;;;;;;5061961;28;20194;-54
2022/04/10 00:26:05;;;;;;;5.93;1.90;;;3.80;99.90;;;;;;5058463;28;20199;-53
2022/04/10 00:28:32;;;;;;;8.37;1.83;;;3.80;99.90;;;;;;5062817;28;20219;-54
2022/04/10 00:30:59;;;;;;;13.27;2.00;;;3.80;99.90;;;;;;5046438;28;20329;-56
2022/04/10 00:33:27;;;;;;;5.43;1.70;;;3.70;99.90;;;;;;5062135;28;20267;-54
2022/04/10 00:35:55;;;;;;;9.17;2.20;;;3.70;99.90;;;;;;5041338;28;20206;-55
2022/04/10 00:38:21;;;;;;;6.00;1.53;;;3.70;99.90;;;;;;5065580;28;20226;-54
2022/04/10 00:40:49;;;;;;;10.37;1.73;;;3.60;99.90;;;;;;5060934;28;20264;-56
2022/04/10 00:43:16;;;;;;;5.80;1.73;;;3.60;99.90;;;;;;5063373;28;20202;-53
2022/04/10 00:45:43;;;;;;;6.57;1.67;;;3.60;99.90;;;;;;5058961;28;20932;-54
2022/04/10 00:48:10;;;;;;;4.27;1.47;;;3.50;99.90;;;;;;5061497;28;20215;-56
2022/04/10 00:51:40;;;;;;;9.03;1.60;;;3.50;99.90;;;;;;5064540;28;20202;-54
2022/04/10 00:53:26;;;;;;;4.70;1.23;;;3.50;99.90;;;;;;5061007;28;20290;-55
2022/04/10 00:55:54;;;;;;;6.80;1.70;;;3.50;99.90;;;;;;5061306;28;20191;-53
2022/04/10 00:58:20;;;;;;;7.63;1.67;;;3.50;99.90;;;;;;5065016;28;20226;-56
2022/04/10 01:00:48;;;;;;;6.80;1.57;;;3.50;99.90;;;;;;5060131;28;20265;-55
2022/04/10 01:03:15;;;;;;;6.00;1.63;;;3.50;99.90;;;;;;5061622;28;20198;-52
2022/04/10 01:05:46;;;;;;;10.87;1.93;;;3.50;99.90;;;;;;5064851;28;20249;-55
2022/04/10 01:08:15;;;;;;;3.17;1.30;;;3.50;99.90;;;;;;5047417;28;20955;-57
2022/04/10 01:10:42;;;;;;;4.97;1.57;;;3.50;99.90;;;;;;5064589;28;20209;-54
2022/04/10 01:13:09;;;;;;;9.17;1.43;;;3.50;99.90;;;;;;5057353;28;20329;-53
2022/04/10 01:15:37;;;;;;;5.57;1.90;;;3.40;99.90;;;;;;5065242;28;20191;-52
2022/04/10 01:18:06;;;;;;;3.27;1.40;;;3.40;99.90;;;;;;5054204;28;20213;-52
2022/04/10 01:20:33;;;;;;;7.23;1.30;;;3.40;99.90;;;;;;5058695;28;20209;-52
2022/04/10 01:23:07;;;;;;;5.37;1.20;;;3.40;99.90;;;;;;5046145;28;22007;-50
2022/04/10 01:25:35;;;;;;;5.80;1.90;;;;;;;;;;5058569;28;20221;-53
2022/04/10 01:28:11;;;;;;;5.53;1.53;;;3.30;99.90;;;;;;5059320;28;20214;-54
2022/04/10 01:30:38;;;;;;;4.70;1.17;;;3.30;99.90;;;;;;5063903;28;20218;-54
2022/04/10 01:33:05;;;;;;;6.83;1.63;;;3.30;99.90;;;;;;5053861;28;20226;-52
2022/04/10 01:35:33;;;;;;;4.03;1.50;;;3.30;99.90;;;;;;5063666;28;20209;-53
2022/04/10 01:38:02;;;;;;;6.23;1.40;;;3.30;99.90;;;;;;5058965;28;20210;-53
2022/04/10 01:40:39;;;;;;;12.67;1.90;;;3.30;99.90;;;;;;5059518;28;20202;-52
2022/04/10 01:43:07;;;;;;;3.70;1.10;;;3.30;99.90;;;;;;5055964;28;20187;-51
2022/04/10 01:45:35;;;;;;;6.53;1.20;;;3.30;99.90;;;;;;5063459;28;20214;-54
2022/04/10 01:48:03;;;;;;;6.73;1.53;;;3.20;99.90;;;;;;5054771;28;20230;-48
2022/04/10 01:50:30;;;;;;;3.67;1.03;;;3.20;99.90;;;;;;5063496;28;20216;-52
2022/04/10 01:52:57;;;;;;;4.63;1.20;;;3.20;99.90;;;;;;5059229;28;20655;-54
2022/04/10 01:55:26;;;;;;;6.77;1.20;;;3.10;99.90;;;;;;5055228;28;20310;-51
2022/04/10 01:57:54;;;;;;;3.00;1.13;;;3.10;99.90;;;;;;5060736;28;20218;-53
2022/04/10 02:00:21;;;;;;;3.47;1.20;;;3.10;99.90;;;;;;5056262;28;20207;-50
2022/04/10 02:02:49;;;;;;;4.10;1.07;;;3.00;99.90;;;;;;5060735;28;20615;-54
2022/04/10 02:05:16;;;;;;;4.67;1.37;;;3.00;99.90;;;;;;5055696;28;20226;-51
2022/04/10 02:07:43;;;;;;;3.07;1.30;;;3.00;99.90;;;;;;5061213;28;20218;-54
2022/04/10 02:10:11;;;;;;;3.77;1.33;;;3.00;99.90;;;;;;5045795;28;20209;-55
2022/04/10 02:12:38;;;;;;;4.70;1.50;;;3.00;99.90;;;;;;5062986;28;20191;-53
2022/04/10 02:15:07;;;;;;;3.73;1.30;;;3.10;99.90;;;;;;5058024;28;20197;-50
2022/04/10 02:17:34;;;;;;;8.13;1.33;;;3.00;99.90;;;;;;5061959;28;20218;-53
2022/04/10 02:20:01;;;;;;;8.20;1.60;;;3.00;99.90;;;;;;5047518;28;20289;-53
2022/04/10 02:22:27;;;;;;;11.77;2.40;;;3.00;99.90;;;;;;5063821;28;20205;-50
2022/04/10 02:24:56;;;;;;;4.27;1.97;;;3.00;99.90;;;;;;5043918;28;20218;-54
2022/04/10 02:27:23;;;;;;;6.03;1.57;;;3.00;99.90;;;;;;5057002;28;20772;-52
2022/04/10 02:29:50;;;;;;;5.80;1.90;;;3.00;99.90;;;;;;5060354;28;20613;-54
2022/04/10 02:32:18;;;;;;;5.80;1.40;;;3.00;99.90;;;;;;5062447;28;20193;-53
2022/04/10 02:34:46;;;;;;;6.23;1.50;;;3.00;99.90;;;;;;5059625;28;20198;-53
2022/04/10 02:37:13;;;;;;;6.10;1.77;;;3.00;99.90;;;;;;5050016;28;20309;-52
2022/04/10 02:39:40;;;;;;;6.97;1.67;;;3.00;99.90;;;;;;5059420;28;20199;-55
2022/04/10 02:42:08;;;;;;;2.47;1.50;;;2.90;99.90;;;;;;5050903;28;20278;-50
2022/04/10 02:44:35;;;;;;;3.53;1.50;;;2.80;99.90;;;;;;5063879;28;20194;-55
2022/04/10 02:47:02;;;;;;;3.40;1.50;;;2.70;99.90;;;;;;5057473;28;20237;-52
2022/04/10 02:49:30;;;;;;;4.77;1.60;;;2.60;99.90;;;;;;5062361;28;20213;-48
2022/04/10 02:51:57;;;;;;;2.00;1.20;;;2.60;99.90;;;;;;5045752;28;20635;-55
2022/04/10 02:54:24;;;;;;;2.80;1.50;;;2.60;99.90;;;;;;5063499;28;20202;-53
2022/04/10 02:56:51;;;;;;;4.63;1.17;;;2.50;99.90;;;;;;5039942;28;20563;-54
2022/04/10 02:59:18;;;;;;;2.30;0.90;;;2.50;99.90;;;;;;5066964;28;20209;-49
2022/04/10 03:01:48;;;;;;;4.53;1.77;;;2.50;99.90;;;;;;5060485;28;20210;-55
2022/04/10 03:04:15;;;;;;;4.90;1.37;;;2.50;99.90;;;;;;5056499;28;20744;-54
2022/04/10 03:06:43;;;;;;;3.13;1.20;;;2.40;99.90;;;;;;5067149;28;20211;-54
2022/04/10 03:09:11;;;;;;;5.20;1.50;;;2.40;99.90;;;;;;5059606;28;20205;-51
2022/04/10 03:11:38;;;;;;;1.93;1.00;;;2.40;99.90;;;;;;5048313;28;20207;-50
2022/04/10 03:14:05;;;;;;;5.13;1.20;;;2.20;99.90;;;;;;5051586;28;20206;-50
2022/04/10 03:16:32;;;;;;;3.57;1.77;;;2.40;99.90;;;;;;5062457;28;20201;-55
2022/04/10 03:18:59;;;;;;;4.30;1.30;;;2.20;99.90;;;;;;5053928;28;20221;-54
2022/04/10 03:21:25;;;;;;;5.77;1.87;;;2.10;99.90;;;;;;5061961;28;20198;-53
2022/04/10 03:23:54;;;;;;;2.70;1.33;;;2.10;99.90;;;;;;5055197;28;20209;-55
2022/04/10 03:26:20;;;;;;;5.77;1.53;;;2.10;99.90;;;;;;5046798;28;20713;-54
2022/04/10 03:28:47;;;;;;;3.20;1.30;;;2.10;99.90;;;;;;5059400;28;20210;-50
2022/04/10 03:31:14;;;;;;;4.40;1.23;;;2.10;99.90;;;;;;5060267;28;20280;-53
2022/04/10 03:33:41;;;;;;;5.37;1.50;;;2.10;99.90;;;;;;5062082;28;20294;-54
2022/04/10 03:36:09;;;;;;;7.57;2.30;;;2.10;99.90;;;;;;5069045;28;20210;-51
2022/04/10 03:38:36;;;;;;;5.90;1.60;;;2.10;99.90;;;;;;5055938;28;20233;-49
2022/04/10 03:41:05;;;;;;;7.53;1.80;;;2.10;99.90;;;;;;5057620;28;20366;-55
2022/04/10 03:43:33;;;;;;;4.93;2.30;;;2.00;99.90;;;;;;5040810;28;20209;-53
2022/04/10 03:46:00;;;;;;;3.20;1.97;;;2.00;99.90;;;;;;5056548;28;20214;-50
2022/04/10 03:48:27;;;;;;;7.20;1.77;;;2.00;99.90;;;;;;5061250;28;20221;-54
2022/04/10 03:50:54;;;;;;;5.60;1.90;;;2.10;99.90;;;;;;5058250;28;20186;-55
2022/04/10 03:53:22;;;;;;;3.80;1.90;;;2.10;99.90;;;;;;5056289;28;20279;-51
2022/04/10 03:55:49;;;;;;;6.83;1.87;;;2.10;99.90;;;;;;5052898;28;20650;-55
2022/04/10 03:58:19;;;;;;;3.20;1.70;;;2.10;99.90;;;;;;5044641;28;20280;-54
2022/04/10 04:00:47;;;;;;;3.03;1.73;;;2.10;99.90;;;;;;5054520;28;20201;-55
2022/04/10 04:03:16;;;;;;;6.47;1.93;;;2.10;99.90;;;;;;5058565;28;20189;-51
2022/04/10 04:05:42;;;;;;;5.87;1.70;;;2.10;99.90;;;;;;5057567;28;20245;-56
2022/04/10 04:08:13;;;;;;;6.00;2.03;;;2.10;99.90;;;;;;5053792;28;20280;-50
2022/04/10 04:10:40;;;;;;;6.07;2.00;;;2.20;99.90;;;;;;5060917;28;20679;-56
2022/04/10 04:13:07;;;;;;;5.00;1.80;;;2.20;99.90;;;;;;5047140;28;22239;-55
2022/04/10 04:15:35;;;;;;;6.43;2.23;;;2.30;99.90;;;;;;5058638;28;20501;-53
2022/04/10 04:18:02;;;;;;;5.73;2.40;;;2.30;99.90;;;;;;5061474;28;20219;-52
2022/04/10 04:20:30;;;;;;;8.17;2.03;;;2.30;99.90;;;;;;5059517;28;20559;-54
2022/04/10 04:23:00;;;;;;;2.73;2.00;;;2.30;99.90;;;;;;5055584;28;20919;-52
2022/04/10 04:25:27;;;;;;;5.97;1.90;;;2.20;99.90;;;;;;5065155;28;20614;-54
2022/04/10 04:27:57;;;;;;;5.57;2.33;;;2.10;99.90;;;;;;5048906;28;20221;-55
2022/04/10 04:30:23;;;;;;;4.80;2.10;;;2.10;99.90;;;;;;5064562;28;20198;-51
2022/04/10 04:32:56;;;;;;;4.50;1.73;;;2.10;99.90;;;;;;5062043;28;20203;-51
2022/04/10 04:35:24;;;;;;;5.33;2.17;;;2.00;99.90;;;;;;5063529;28;20205;-54
2022/04/10 04:37:50;;;;;;;5.10;2.23;;;2.00;99.90;;;;;;5062526;28;20299;-54
2022/04/10 04:40:20;;;;;;;5.73;2.00;;;2.00;99.90;;;;;;5059319;28;20289;-54
2022/04/10 04:42:48;;;;;;;5.50;2.70;;;2.00;99.90;;;;;;5062691;28;20204;-55
2022/04/10 04:45:18;;;;;;;6.57;2.57;;;2.00;99.90;;;;;;5045930;28;20216;-48
2022/04/10 04:48:00;;;;;;;5.63;2.50;;;2.00;99.90;;;;;;5059548;28;20210;-53
2022/04/10 04:50:27;;;;;;;4.63;2.60;;;2.10;99.90;;;;;;5064705;28;20281;-50
2022/04/10 04:52:54;;;;;;;6.80;2.30;;;2.10;99.90;;;;;;5057980;28;20252;-55
2022/04/10 04:55:22;;;;;;;7.97;2.70;;;2.20;99.90;;;;;;5060530;28;20263;-51
2022/04/10 04:57:50;;;;;;;6.83;2.80;;;2.20;99.90;;;;;;5061443;28;20263;-50
2022/04/10 05:00:17;;;;;;;7.93;2.97;;;2.20;99.90;;;;;;5049796;28;20980;-52
2022/04/10 05:02:50;;;;;;;7.67;2.83;;;2.30;99.90;;;;;;5056694;28;20205;-53
2022/04/10 05:05:18;;;;;;;9.97;2.90;;;2.30;99.90;;;;;;5079057;28;20212;-56
2022/04/10 05:07:45;;;;;;;7.97;3.10;;;2.40;99.90;;;;;;5053641;28;20226;-52
2022/04/10 05:10:13;;;;;;;6.63;3.43;;;2.40;99.90;;;;;;5059641;28;20195;-53
2022/04/10 05:12:40;;;;;;;13.70;2.97;;;2.40;99.90;;;;;;5058889;28;20755;-55
2022/04/10 05:15:11;;;;;;;9.13;3.33;;;2.50;99.90;;;;;;5047071;28;20218;-51
2022/04/10 05:17:44;;;;;;;7.50;3.03;;;2.50;99.90;;;;;;5059364;28;20218;-54
2022/04/10 05:20:12;;;;;;;8.20;3.57;;;2.50;99.90;;;;;;5056962;28;20836;-53
2022/04/10 05:22:50;;;;;;;11.13;3.60;;;2.60;99.90;;;;;;5077946;28;20201;-55
2022/04/10 05:25:18;;;;;;;12.93;3.13;;;2.70;99.90;;;;;;5063184;28;20211;-55
2022/04/10 05:27:48;;;;;;;4.53;3.23;;;2.70;99.90;;;;;;5055923;28;20253;-55
2022/04/10 05:30:16;;;;;;;6.43;2.57;;;2.70;99.90;;;;;;5056438;28;20214;-53
2022/04/10 05:32:45;;;;;;;8.13;2.77;;;2.70;99.90;;;;;;5043462;28;20293;-51
2022/04/10 05:35:13;;;;;;;9.57;3.90;;;2.80;99.90;;;;;;5059557;28;20218;-53
2022/04/10 05:37:43;;;;;;;9.07;2.83;;;2.80;99.90;;;;;;5060702;28;20632;-52
2022/04/10 05:40:13;;;;;;;9.93;2.93;;;2.80;99.90;;;;;;5062805;28;20199;-52
2022/04/10 05:42:44;;;;;;;11.50;3.43;;;2.90;99.90;;;;;;5052931;28;20297;-54
2022/04/10 05:45:13;;;;;;;5.80;2.33;;;2.90;99.90;;;;;;5062966;28;20256;-52
2022/04/10 05:47:44;;;;;;;11.17;3.23;;;2.90;99.90;;;;;;5062969;28;20218;-56
2022/04/10 05:50:13;;;;;;;12.37;3.30;;;3.00;99.90;;;;;;5063692;28;20198;-52
2022/04/10 05:52:41;;;;;;;13.87;2.80;;;3.00;99.90;;;;;;5060402;28;20290;-51
2022/04/10 05:55:10;;;;;;;8.10;3.10;;;2.90;99.90;;;;;;5062633;28;20264;-53
2022/04/10 05:57:39;;;;;;;13.30;2.93;;;3.00;99.90;;;;;;5054451;28;20233;-54
2022/04/10 06:00:08;;;;;;;6.87;2.57;;;3.00;99.90;;;;;;5063209;28;20982;-50
2022/04/10 06:02:42;;;;;;;8.07;2.80;;;2.90;99.90;;;;;;5042754;28;20206;-54
2022/04/10 06:05:15;;;;;;;6.67;2.40;;;3.00;99.90;;;;;;5061668;28;20473;-53
2022/04/10 06:07:53;;;;;;;5.80;3.20;;;3.00;99.90;;;;;;5056434;28;21426;-51
2022/04/10 06:10:20;;;;;;;8.93;2.93;;;3.00;99.90;;;;;;5064021;28;20195;-51
2022/04/10 06:12:50;;;;;;;8.87;2.73;;;3.00;99.90;;;;;;5053765;28;20793;-55
2022/04/10 06:15:18;;;;;;;9.20;2.80;;;3.00;99.90;;;;;;5062763;28;20210;-54
2022/04/10 06:17:45;;;;;;;11.43;3.23;;;3.10;99.90;;;;;;5046584;28;20264;-55
2022/04/10 06:20:12;;;;;;;8.93;2.80;;;3.30;99.90;;;;;;5060918;28;20209;-51
2022/04/10 06:22:41;;;;;;;8.00;2.97;;;3.40;99.90;;;;;;5060178;28;20203;-54
2022/04/10 06:25:09;;;;;;;9.07;2.90;;;3.60;99.90;;;;;;5060191;28;20546;-51
2022/04/10 06:27:36;;;;;;;17.00;2.80;;;3.60;99.90;;;;;;5057583;28;20226;-52
2022/04/10 06:30:05;;;;;;;10.20;3.13;;;3.70;99.90;;;;;;5057299;28;20197;-54
2022/04/10 06:32:38;;;;;;;13.53;2.97;;;3.70;99.90;;;;;;5060793;28;20198;-55
2022/04/10 06:35:06;;;;;;;12.07;2.60;;;3.70;99.90;;;;;;5042440;28;20325;-52
2022/04/10 06:37:33;;;;;;;10.67;2.67;;;3.70;99.90;;;;;;5060993;28;20675;-55
2022/04/10 06:40:00;;;;;;;9.67;2.60;;;3.80;99.90;;;;;;5059510;28;20199;-51
2022/04/10 06:42:27;;;;;;;11.27;3.20;;;3.90;99.90;;;;;;5055069;28;20220;-53
2022/04/10 06:45:27;;;;;;;16.10;3.47;;;4.00;99.90;;;;;;5056240;28;20214;-51
2022/04/10 06:47:57;;;;;;;14.83;2.30;;;4.10;99.90;;;;;;5053805;28;20815;-53
2022/04/10 06:50:34;;;;;;;9.23;1.93;;;4.10;99.90;;;;;;5047047;28;20572;-53
2022/04/10 06:53:04;;;;;;;9.20;2.60;;;4.10;99.90;;;;;;5059824;28;20187;-49
2022/04/10 06:55:31;;;;;;;9.93;2.00;;;4.20;99.90;;;;;;5059922;28;20217;-53
2022/04/10 06:57:59;;;;;;;10.00;2.17;;;4.10;99.90;;;;;;5054828;28;20411;-50
2022/04/10 07:00:28;;;;;;;12.10;2.33;;;4.20;99.90;;;;;;5066729;28;20207;-49
2022/04/10 07:02:56;;;;;;;7.50;1.80;;;4.20;99.90;;;;;;5054811;28;20187;-50
2022/04/10 07:05:23;;;;;;;4.17;1.67;;;4.40;99.90;;;;;;5044469;28;20209;-50
2022/04/10 07:07:55;;;;;;;3.27;1.47;;;4.40;99.90;;;;;;5057090;28;20222;-53
2022/04/10 07:10:22;;;;;;;5.50;2.40;;;4.10;99.90;;;;;;5058865;28;20549;-50
2022/04/10 07:12:50;;;;;;;6.30;1.60;;;4.40;99.90;;;;;;5057709;28;20800;-52
2022/04/10 07:15:19;;;;;;;5.50;1.77;;;4.40;99.90;;;;;;5053364;28;20206;-55
2022/04/10 07:17:50;;;;;;;5.27;1.10;;;4.50;99.90;;;;;;5046025;28;20230;-50
2022/04/10 07:20:18;;;;;;;6.30;1.60;;;4.60;99.90;;;;;;5061212;28;20218;-53
2022/04/10 07:25:32;;;;;;;6.43;1.43;;;4.40;99.90;;;;;;5055307;28;20197;-51
2022/04/10 07:28:03;;;;;;;8.17;1.90;;;4.50;99.90;;;;;;5064275;28;20222;-49
2022/04/10 07:30:43;;;;;;;7.40;1.63;;;4.30;99.90;;;;;;5049047;28;20202;-53
2022/04/10 07:33:18;;;;;;;11.33;2.17;;;4.50;99.90;;;;;;5054574;28;20207;-53
2022/04/10 07:35:54;;;;;;;9.80;2.17;;;4.40;99.90;;;;;;5043089;28;20395;-53
2022/04/10 07:38:26;;;;;;;4.87;1.83;;;4.60;99.90;;;;;;5068310;28;20226;-51
2022/04/10 07:40:58;;;;;;;5.70;2.20;;;4.50;99.90;;;;;;5055143;28;20191;-52
2022/04/10 07:43:36;;;;;;;2.73;1.77;;;4.80;99.90;;;;;;5059364;28;20202;-49
2022/04/10 07:49:08;;;;;;;7.53;2.13;;;5.00;99.90;;;;;;5043381;28;20324;-53
2022/04/10 07:51:48;;;;;;;5.17;1.50;;;5.10;99.90;;;;;;5035244;28;20209;-52
2022/04/10 07:54:22;;;;;;;7.70;1.73;;;5.20;99.90;;;;;;5050160;28;21000;-51
2022/04/10 07:56:53;;;;;;;5.60;1.80;;;5.40;99.90;;;;;;5057944;28;20233;-53
2022/04/10 07:59:27;;;;;;;7.50;2.10;;;5.50;99.90;;;;;;5051239;28;20307;-54
2022/04/10 08:01:56;;;;;;;5.80;1.97;;;5.80;99.90;;;;;;5051219;28;20205;-53
2022/04/10 08:04:30;;;;;;;6.33;2.00;;;5.80;99.90;;;;;;5055576;28;20255;-55
2022/04/10 08:07:18;;;;;;;8.27;2.40;;;6.10;99.90;;;;;;5031536;28;20309;-51
2022/04/10 08:09:48;;;;;;;8.63;2.40;;;6.00;99.90;;;;;;5055036;28;20302;-53
2022/04/10 08:12:17;;;;;;;6.70;2.00;;;5.90;99.90;;;;;;5051404;28;20198;-51
2022/04/10 08:14:45;;;;;;;5.20;1.47;;;5.80;99.90;;;;;;5057579;28;20269;-51
2022/04/10 08:17:15;;;;;;;8.40;1.70;;;5.40;99.90;;;;;;5059357;28;20210;-50
2022/04/10 08:19:45;;;;;;;10.27;2.47;;;5.10;99.90;;;;;;5044916;28;20182;-51
2022/04/10 08:22:16;;;;;;;12.13;2.37;;;5.10;99.90;;;;;;5049309;28;20203;-53
2022/04/10 08:24:45;;;;;;;8.83;2.40;;;5.10;99.90;;;;;;5046596;28;20921;-50
2022/04/10 08:27:14;;;;;;;8.43;1.97;;;5.30;99.90;;;;;;5061438;28;20214;-51
2022/04/10 08:29:43;;;;;;;9.03;1.70;;;5.50;99.90;;;;;;5050616;28;20197;-52
2022/04/10 08:32:12;;;;;;;4.77;1.43;;;5.50;99.90;;;;;;5057981;28;20744;-53
2022/04/10 08:34:45;;;;;;;13.37;2.37;;;5.60;99.90;;;;;;5056096;28;20203;-55
2022/04/10 08:37:17;;;;;;;7.77;2.83;;;5.70;99.90;;;;;;5055827;28;20289;-50
2022/04/10 08:39:49;;;;;;;10.07;2.40;;;5.60;99.90;;;;;;5045720;28;20206;-50
2022/04/10 08:42:19;;;;;;;8.07;1.77;;;5.80;99.90;;;;;;5059026;28;20943;-49
2022/04/10 08:44:48;;;;;;;3.63;1.50;;;5.90;99.90;;;;;;5054329;28;20698;-55
2022/04/10 08:47:20;;;;;;;7.53;1.20;;;6.10;99.90;;;;;;5067356;28;20223;-54
2022/04/10 08:49:51;;;;;;;8.63;1.40;;;6.10;99.90;;;;;;5053590;28;20744;-54
2022/04/10 08:52:21;;;;;;;18.70;2.27;;;6.10;99.90;;;;;;5050523;28;20310;-55
2022/04/10 08:54:52;;;;;;;7.33;1.87;;;6.40;99.90;;;;;;5052356;28;20209;-54
2022/04/10 08:57:22;;;;;;;5.77;1.27;;;6.50;99.90;;;;;;5054186;28;20739;-52
2022/04/10 08:59:51;;;;;;;3.97;1.67;;;6.60;99.90;;;;;;5054148;28;20551;-54
2022/04/10 09:02:19;;;;;;;5.80;1.73;;;6.70;99.90;;;;;;5054830;28;20206;-50
2022/04/10 09:04:49;;;;;;;4.13;1.00;;;6.60;99.90;;;;;;5061368;28;20626;-53
2022/04/10 09:07:18;;;;;;;5.60;0.97;;;6.70;99.90;;;;;;5052013;28;21275;-54
2022/04/10 09:09:59;;;;;;;10.60;1.67;;;6.80;99.90;;;;;;5040303;28;20203;-52
2022/04/10 09:12:28;;;;;;;6.70;1.50;;;6.90;99.90;;;;;;5058827;28;20550;-53
2022/04/10 09:15:10;;;;;;;7.40;1.57;;;7.00;99.90;;;;;;5050461;28;20235;-52
2022/04/10 09:17:54;;;;;;;5.57;1.40;;;6.90;99.90;;;;;;5058558;28;20335;-51
2022/04/10 09:20:25;;;;;;;4.23;1.40;;;6.80;99.90;;;;;;5063222;28;20621;-52
2022/04/10 09:23:12;;;;;;;8.37;2.00;;;6.80;99.90;;;;;;5049041;28;20328;-54
2022/04/10 09:25:46;;;;;;;8.40;2.00;;;6.90;99.90;;;;;;5046124;28;21271;-54
2022/04/10 09:28:15;;;;;;;8.57;1.40;;;6.90;99.90;;;;;;5056527;28;20219;-50
2022/04/10 09:30:47;;;;;;;7.03;1.50;;;7.00;99.90;;;;;;5044801;28;20291;-50
2022/04/10 09:33:18;;;;;;;7.37;1.43;;;7.10;99.90;;;;;;5059949;28;20191;-52
2022/04/10 09:35:49;;;;;;;7.13;1.67;;;7.20;99.90;;;;;;5053574;28;20920;-53
2022/04/10 09:38:30;;;;;;;7.93;2.10;;;7.20;99.90;;;;;;5063868;28;20233;-51
2022/04/10 09:41:14;;;;;;;5.37;1.73;;;7.20;99.90;;;;;;5052238;28;20256;-49
2022/04/10 09:43:44;;;;;;;10.27;2.03;;;7.10;99.90;;;;;;5059605;28;20806;-51
2022/04/10 09:46:17;;;;;;;5.67;1.40;;;7.10;99.90;;;;;;5056182;28;20565;-54
2022/04/10 09:48:49;;;;;;;11.70;2.47;;;7.10;99.90;;;;;;5059729;28;20245;-49
2022/04/10 09:51:20;;;;;;;7.53;1.63;;;7.10;99.90;;;;;;5061607;28;20194;-49
2022/04/10 09:54:04;;;;;;;4.80;2.13;;;7.10;99.90;;;;;;5055714;28;20198;-54
2022/04/10 09:56:32;;;;;;;5.53;1.33;;;7.10;99.90;;;;;;5044577;28;20191;-54
2022/04/10 09:59:04;;;;;;;10.53;1.93;;;7.20;99.90;;;;;;5064199;28;20213;-50
2022/04/10 10:01:57;;;;;;;8.90;2.00;;;7.30;99.90;;;;;;5049393;28;20222;-49
2022/04/10 10:04:29;;;;;;;5.43;1.50;;;7.30;99.90;;;;;;5062224;28;20228;-52
2022/04/10 10:07:02;;;;;;;9.67;2.00;;;7.30;99.90;;;;;;5052984;28;20570;-53
2022/04/10 10:09:34;;;;;;;5.27;1.77;;;7.20;99.90;;;;;;5054438;28;20580;-51
2022/04/10 10:12:04;;;;;;;6.60;1.33;;;7.20;99.90;;;;;;5058053;28;20213;-48
2022/04/10 10:14:34;;;;;;;5.43;1.90;;;7.20;99.90;;;;;;5040029;28;20215;-55
2022/04/10 10:17:04;;;;;;;7.77;1.70;;;7.20;99.90;;;;;;5051940;28;20203;-55
2022/04/10 10:19:41;;;;;;;6.30;1.50;;;7.10;99.90;;;;;;5053301;28;20284;-47
2022/04/10 10:22:15;;;;;;;3.53;1.50;;;7.20;99.90;;;;;;5063028;28;20718;-49
2022/04/10 10:24:54;;;;;;;7.13;1.70;;;7.20;99.90;;;;;;5051250;28;20208;-53
2022/04/10 10:27:58;;;;;;;6.90;1.40;;;7.40;99.90;;;;;;5058306;28;20213;-52
2022/04/10 10:30:37;;;;;;;2.17;0.83;;;7.50;99.90;;;;;;5063073;28;20190;-52
2022/04/10 10:33:18;;;;;;;7.17;1.10;;;7.60;99.90;;;;;;5043012;28;20194;-53
2022/04/10 10:35:53;;;;;;;1.90;0.90;;;7.60;99.90;;;;;;5059511;28;20187;-54
2022/04/10 10:38:25;;;;;;;5.23;1.00;;;7.70;99.90;;;;;;5062754;28;20214;-52
2022/04/10 10:41:11;;;;;;;7.57;0.93;;;7.80;99.90;;;;;;5052322;28;20222;-56
2022/04/10 10:43:39;;;;;;;7.67;1.33;;;7.80;99.90;;;;;;5064213;28;20182;-51
2022/04/10 10:46:24;;;;;;;5.03;1.50;;;7.80;99.90;;;;;;5044212;28;20436;-52
2022/04/10 10:49:16;;;;;;;2.70;1.03;;;7.90;99.90;;;;;;5047355;28;20757;-52
2022/04/10 10:51:49;;;;;;;5.60;1.20;;;7.90;99.90;;;;;;5059176;28;20567;-52
2022/04/10 10:54:23;;;;;;;5.60;1.80;;;7.80;99.90;;;;;;5057442;28;20194;-52
2022/04/10 10:56:54;;;;;;;5.23;1.30;;;7.90;99.90;;;;;;5053834;28;20224;-57
2022/04/10 10:59:32;;;;;;;4.93;1.03;;;7.90;99.90;;;;;;5063149;28;20199;-50
2022/04/10 11:02:07;;;;;;;7.40;1.67;;;7.80;99.90;;;;;;5050540;28;20214;-51
2022/04/10 11:04:40;;;;;;;3.40;1.20;;;7.70;99.90;;;;;;5053031;28;20290;-53
2022/04/10 11:07:25;;;;;;;8.80;1.47;;;7.70;99.90;;;;;;5049854;28;20214;-55
2022/04/10 11:10:00;;;;;;;1.57;0.70;;;7.90;99.90;;;;;;5058079;28;20187;-54
2022/04/10 11:12:34;;;;;;;6.30;0.70;;;7.70;99.90;;;;;;5055310;28;20248;-54
2022/04/10 11:15:17;;;;;;;4.30;0.90;;;7.10;99.90;;;;;;5062982;28;20213;-54
2022/04/10 11:17:45;;;;;;;3.60;0.70;;;6.60;99.90;;;;;;5045523;28;20214;-52
2022/04/10 11:20:16;;;;;;;3.07;0.90;;;6.20;99.90;;;;;;5046828;28;20458;-54
2022/04/10 11:22:49;;;;;;;3.40;1.10;;;6.20;99.90;;;;;;5054120;28;20202;-53
2022/04/10 11:25:38;;;;;;;3.47;1.00;;;6.40;99.90;;;;;;5055723;28;20201;-51
2022/04/10 11:28:08;;;;;;;4.57;1.30;;;6.00;99.90;;;;;;5049637;28;20456;-54
2022/04/10 11:30:43;;;;;;;1.20;0.67;;;5.80;99.90;;;;;;5062316;28;20389;-48
2022/04/10 11:33:13;;;;;;;2.63;0.83;;;5.70;99.90;;;;;;5045103;28;20293;-51
2022/04/10 11:35:55;;;;;;;4.40;1.63;;;5.70;99.90;;;;;;5052071;28;20297;-45
2022/04/10 11:38:25;;;;;;;1.57;0.57;;;5.70;99.90;;;;;;5057983;28;21015;-45
2022/04/10 11:40:56;;;;;;;1.93;0.80;;;5.80;99.90;;;;;;5054122;28;20211;-47
2022/04/10 11:43:27;;;;;;;2.87;1.33;;;5.90;99.90;;;;;;5055615;28;20190;-48
2022/04/10 11:46:01;;;;;;;4.03;0.93;;;6.20;99.90;;;;;;5057017;28;20663;-48
2022/04/10 11:48:31;;;;;;;5.17;1.70;;;6.40;99.90;;;;;;5035526;28;20341;-48
2022/04/10 11:51:09;;;;;;;4.37;1.10;;;6.60;99.90;;;;;;5052315;28;20680;-52
2022/04/10 11:53:37;;;;;;;7.20;1.87;;;6.80;99.90;;;;;;5051928;28;20285;-48
2022/04/10 11:56:13;;;;;;;8.60;1.80;;;7.00;99.90;;;;;;5058363;28;20198;-54
2022/04/10 11:58:44;;;;;;;2.40;1.20;;;7.30;99.90;;;;;;5050172;28;20624;-51
2022/04/10 12:01:14;;;;;;;4.67;1.00;;;7.50;99.90;;;;;;5049916;28;20683;-52
2022/04/10 12:03:43;;;;;;;5.23;1.60;;;7.50;99.90;;;;;;5043995;28;20207;-50
2022/04/10 12:06:20;;;;;;;4.23;1.53;;;7.80;99.90;;;;;;5053674;28;20194;-52
2022/04/10 12:08:51;;;;;;;2.97;1.07;;;8.00;99.90;;;;;;5056146;28;20557;-51
2022/04/10 12:11:25;;;;;;;6.17;1.53;;;8.40;99.90;;;;;;5050457;28;20195;-49
2022/04/10 12:13:56;;;;;;;5.30;0.90;;;8.50;99.90;;;;;;5047851;28;20212;-51
2022/04/10 12:16:27;;;;;;;4.43;0.90;;;8.10;99.90;;;;;;5059246;28;20191;-48
2022/04/10 12:18:59;;;;;;;4.90;1.23;;;7.50;99.90;;;;;;5050247;28;20312;-49
2022/04/10 12:21:29;;;;;;;4.17;0.83;;;7.10;99.90;;;;;;5057706;28;20199;-48
2022/04/10 12:24:01;;;;;;;5.03;1.03;;;6.90;99.90;;;;;;5052596;28;20217;-53
2022/04/10 12:26:33;;;;;;;2.60;0.80;;;7.00;99.90;;;;;;5050464;28;20228;-53
2022/04/10 12:29:05;;;;;;;3.93;0.80;;;7.20;99.90;;;;;;5046635;28;20296;-48
2022/04/10 12:31:37;;;;;;;3.50;0.70;;;7.30;99.90;;;;;;5062032;28;20216;-45
2022/04/10 12:34:06;;;;;;;4.63;1.07;;;7.60;99.90;;;;;;5045736;28;20213;-50
2022/04/10 12:36:35;;;;;;;4.10;0.77;;;7.80;99.90;;;;;;5065752;28;20274;-46
2022/04/10 12:39:04;;;;;;;6.20;0.90;;;7.90;99.90;;;;;;5064851;28;20206;-54
2022/04/10 12:41:34;;;;;;;5.97;1.13;;;8.10;99.90;;;;;;5057981;28;20197;-47
2022/04/10 12:44:10;;;;;;;4.40;1.20;;;8.30;99.90;;;;;;5057376;28;20206;-53
2022/04/10 12:46:41;;;;;;;8.17;1.30;;;8.50;99.90;;;;;;5065196;28;20205;-50
2022/04/10 12:49:14;;;;;;;6.17;1.47;;;8.40;99.90;;;;;;5050454;28;20214;-46
2022/04/10 12:51:49;;;;;;;5.07;1.30;;;8.50;99.90;;;;;;5061297;28;20297;-47
2022/04/10 12:54:33;;;;;;;7.73;1.67;;;8.40;99.90;;;;;;5063716;28;20198;-50
2022/04/10 12:57:04;;;;;;;5.93;1.30;;;8.30;99.90;;;;;;5056310;28;20388;-47
2022/04/10 12:59:46;;;;;;;4.30;1.43;;;8.40;99.90;;;;;;5057596;28;20194;-48
2022/04/10 13:02:24;;;;;;;7.80;1.50;;;8.20;99.90;;;;;;5053806;28;20285;-47
2022/04/10 13:04:58;;;;;;;6.30;1.40;;;8.20;99.90;;;;;;5044997;28;20256;-46
2022/04/10 13:07:27;;;;;;;3.53;1.30;;;8.40;99.90;;;;;;5056538;28;20333;-52
2022/04/10 13:10:06;;;;;;;4.73;1.43;;;8.60;99.90;;;;;;5068598;28;20299;-48
2022/04/10 13:12:38;;;;;;;7.10;1.37;;;8.70;99.90;;;;;;5062654;28;20199;-49
2022/04/10 13:15:08;;;;;;;5.43;2.30;;;8.80;99.90;;;;;;5052311;28;20616;-51
2022/04/10 13:17:39;;;;;;;5.03;1.33;;;8.90;99.90;;;;;;5054487;28;21395;-52
2022/04/10 13:20:12;;;;;;;4.30;1.40;;;8.90;99.90;;;;;;5046111;28;20442;-48